EZY1018 GMMX-LFBD
Flight info
| Callsign | EZY1018 |
|---|---|
| Flight time | N/A |
| Altitude | 36000 |
| Route | OBOGA UG850 VALBA UZ801 TOLSI UG5 KORIS DCT SVL DCT HIJ DCT RUSEM DCT SOTUK DCT USOKO DCT TLD DCT SIE DCT EDIGO DCT DGO L176 SSN DCT URUNA DCT BTZ DCT VAVIX |
| Aircraft | A320/M-SDE3FGHIRWY/LB1 |
Departure
| Time | 2026-05-08 06:12 |
|---|---|
| Airport | Marrakesh Menara Airport (GMMX) |
Arrival
| Time | N/A |
|---|---|
| Airport | Bordeaux–Mérignac Airport (LFBD) |
| Time | Latitude | Longitude | Altitude | Speed | Heading |
|---|---|---|---|---|---|
| 2026-05-08 05:41 | 31.60185 | -8.02301 | 1537 ft | 0 kts | 274° |
| 2026-05-08 06:02 | 31.60185 | -8.02298 | 1540 ft | 2 kts | 274° |
| 2026-05-08 06:02 | 31.60183 | -8.02268 | 1531 ft | 4 kts | 280° |
| 2026-05-08 06:03 | 31.60176 | -8.02238 | 1541 ft | 4 kts | 296° |
| 2026-05-08 06:03 | 31.60161 | -8.02216 | 1541 ft | 4 kts | 346° |
| 2026-05-08 06:03 | 31.60154 | -8.02214 | 1541 ft | 0 kts | 6° |
| 2026-05-08 06:05 | 31.60163 | -8.02213 | 1538 ft | 3 kts | 6° |
| 2026-05-08 06:05 | 31.60201 | -8.02208 | 1541 ft | 8 kts | 6° |
| 2026-05-08 06:05 | 31.60268 | -8.02200 | 1541 ft | 12 kts | 6° |
| 2026-05-08 06:05 | 31.60356 | -8.02188 | 1534 ft | 12 kts | 5° |
| 2026-05-08 06:06 | 31.60398 | -8.02273 | 1535 ft | 16 kts | 276° |
| 2026-05-08 06:06 | 31.60410 | -8.02421 | 1535 ft | 21 kts | 276° |
| 2026-05-08 06:06 | 31.60427 | -8.02602 | 1536 ft | 24 kts | 276° |
| 2026-05-08 06:06 | 31.60438 | -8.02730 | 1528 ft | 23 kts | 275° |
| 2026-05-08 06:07 | 31.60455 | -8.02919 | 1531 ft | 21 kts | 276° |
| 2026-05-08 06:07 | 31.60471 | -8.03098 | 1523 ft | 23 kts | 276° |
| 2026-05-08 06:07 | 31.60488 | -8.03295 | 1522 ft | 25 kts | 276° |
| 2026-05-08 06:07 | 31.60504 | -8.03479 | 1526 ft | 23 kts | 276° |
| 2026-05-08 06:08 | 31.60520 | -8.03658 | 1523 ft | 22 kts | 276° |
| 2026-05-08 06:08 | 31.60536 | -8.03844 | 1521 ft | 24 kts | 276° |
| 2026-05-08 06:08 | 31.60552 | -8.04029 | 1519 ft | 23 kts | 276° |
| 2026-05-08 06:08 | 31.60569 | -8.04224 | 1517 ft | 20 kts | 276° |
| 2026-05-08 06:09 | 31.60585 | -8.04396 | 1513 ft | 22 kts | 278° |
| 2026-05-08 06:09 | 31.60601 | -8.04584 | 1512 ft | 24 kts | 276° |
| 2026-05-08 06:09 | 31.60617 | -8.04771 | 1510 ft | 22 kts | 275° |
| 2026-05-08 06:09 | 31.60634 | -8.04962 | 1508 ft | 25 kts | 276° |
| 2026-05-08 06:10 | 31.60650 | -8.05153 | 1506 ft | 14 kts | 276° |
| 2026-05-08 06:10 | 31.60698 | -8.05247 | 1504 ft | 15 kts | 351° |
| 2026-05-08 06:10 | 31.60784 | -8.05234 | 1504 ft | 11 kts | 19° |
| 2026-05-08 06:10 | 31.60823 | -8.05176 | 1504 ft | 8 kts | 83° |
| 2026-05-08 06:11 | 31.60819 | -8.05118 | 1505 ft | 9 kts | 96° |
| 2026-05-08 06:11 | 31.60791 | -8.04804 | 1509 ft | 75 kts | 96° |
| 2026-05-08 06:11 | 31.60715 | -8.03937 | 1519 ft | 135 kts | 96° |
| 2026-05-08 06:11 | 31.60593 | -8.02677 | 1746 ft | 163 kts | 98° |
| 2026-05-08 06:12 | 31.60313 | -8.01399 | 2427 ft | 163 kts | 117° |
| 2026-05-08 06:12 | 31.59814 | -8.00190 | 3066 ft | 168 kts | 116° |
| 2026-05-08 06:12 | 31.59311 | -7.98898 | 3478 ft | 183 kts | 115° |
| 2026-05-08 06:12 | 31.58761 | -7.97467 | 3765 ft | 202 kts | 114° |
| 2026-05-08 06:13 | 31.58156 | -7.95875 | 4000 ft | 226 kts | 114° |
| 2026-05-08 06:13 | 31.57487 | -7.94104 | 4448 ft | 245 kts | 114° |
| 2026-05-08 06:13 | 31.56788 | -7.92256 | 5240 ft | 249 kts | 114° |
| 2026-05-08 06:13 | 31.56180 | -7.90343 | 6040 ft | 253 kts | 100° |
| 2026-05-08 06:14 | 31.56172 | -7.88272 | 6829 ft | 257 kts | 78° |
| 2026-05-08 06:14 | 31.56842 | -7.86327 | 7595 ft | 261 kts | 55° |
| 2026-05-08 06:14 | 31.58112 | -7.84800 | 8364 ft | 265 kts | 33° |
| 2026-05-08 06:14 | 31.59809 | -7.83939 | 9122 ft | 269 kts | 11° |
| 2026-05-08 06:15 | 31.61663 | -7.83857 | 9851 ft | 273 kts | 355° |
| 2026-05-08 06:15 | 31.63577 | -7.84003 | 10610 ft | 277 kts | 354° |
| 2026-05-08 06:15 | 31.65513 | -7.84156 | 11334 ft | 281 kts | 354° |
| 2026-05-08 06:15 | 31.67484 | -7.84290 | 12017 ft | 287 kts | 357° |
| 2026-05-08 06:16 | 31.69498 | -7.84195 | 12712 ft | 292 kts | 1° |
| 2026-05-08 06:16 | 31.71542 | -7.84025 | 13402 ft | 296 kts | 0° |
| 2026-05-08 06:16 | 31.73613 | -7.83913 | 14078 ft | 299 kts | 358° |
| 2026-05-08 06:16 | 31.75705 | -7.83897 | 14748 ft | 302 kts | 355° |
| 2026-05-08 06:17 | 31.79954 | -7.83714 | 16022 ft | 313 kts | 10° |
| 2026-05-08 06:17 | 31.82022 | -7.82833 | 16601 ft | 322 kts | 26° |
| 2026-05-08 06:17 | 31.83917 | -7.81267 | 16752 ft | 346 kts | 43° |
| 2026-05-08 06:18 | 31.85663 | -7.79207 | 16888 ft | 366 kts | 46° |
| 2026-05-08 06:18 | 31.87433 | -7.76945 | 17013 ft | 385 kts | 48° |
| 2026-05-08 06:18 | 31.89240 | -7.74549 | 17330 ft | 396 kts | 48° |
| 2026-05-08 06:18 | 31.91073 | -7.72093 | 17848 ft | 402 kts | 48° |
| 2026-05-08 06:19 | 31.92931 | -7.69614 | 18390 ft | 406 kts | 48° |
| 2026-05-08 06:19 | 31.94818 | -7.67123 | 18935 ft | 409 kts | 47° |
| 2026-05-08 06:19 | 31.96736 | -7.64623 | 19461 ft | 413 kts | 47° |
| 2026-05-08 06:19 | 31.98679 | -7.62110 | 19983 ft | 417 kts | 47° |
| 2026-05-08 06:20 | 32.00639 | -7.59576 | 20491 ft | 420 kts | 47° |
| 2026-05-08 06:20 | 32.02619 | -7.57022 | 20958 ft | 424 kts | 46° |
| 2026-05-08 06:20 | 32.04814 | -7.54693 | 21417 ft | 427 kts | 36° |
| 2026-05-08 06:20 | 32.07310 | -7.52787 | 21870 ft | 429 kts | 26° |
| 2026-05-08 06:21 | 32.10037 | -7.51363 | 22319 ft | 430 kts | 17° |
| 2026-05-08 06:21 | 32.12883 | -7.50456 | 22752 ft | 430 kts | 7° |
| 2026-05-08 06:21 | 32.15848 | -7.50040 | 23175 ft | 430 kts | 359° |
| 2026-05-08 06:21 | 32.18846 | -7.50024 | 23587 ft | 432 kts | 356° |
| 2026-05-08 06:22 | 32.21860 | -7.50042 | 23996 ft | 435 kts | 356° |
| 2026-05-08 06:22 | 32.24896 | -7.50059 | 24405 ft | 437 kts | 356° |
| 2026-05-08 06:22 | 32.27948 | -7.50078 | 24807 ft | 440 kts | 356° |
| 2026-05-08 06:22 | 32.31021 | -7.50098 | 25194 ft | 443 kts | 356° |
| 2026-05-08 06:23 | 32.34110 | -7.50119 | 25585 ft | 445 kts | 356° |
| 2026-05-08 06:23 | 32.37213 | -7.50137 | 25968 ft | 447 kts | 356° |
| 2026-05-08 06:23 | 32.40333 | -7.50152 | 26334 ft | 450 kts | 356° |
| 2026-05-08 06:23 | 32.43468 | -7.50168 | 26687 ft | 452 kts | 356° |
| 2026-05-08 06:24 | 32.46623 | -7.50190 | 27035 ft | 454 kts | 356° |
| 2026-05-08 06:24 | 32.49790 | -7.50214 | 27386 ft | 456 kts | 356° |
| 2026-05-08 06:24 | 32.52971 | -7.50237 | 27718 ft | 459 kts | 356° |
| 2026-05-08 06:24 | 32.56172 | -7.50259 | 28052 ft | 461 kts | 356° |
| 2026-05-08 06:25 | 32.59393 | -7.50280 | 28386 ft | 463 kts | 356° |
| 2026-05-08 06:25 | 32.62619 | -7.50303 | 28707 ft | 465 kts | 355° |
| 2026-05-08 06:25 | 32.65869 | -7.50331 | 29022 ft | 467 kts | 355° |
| 2026-05-08 06:25 | 32.69132 | -7.50365 | 29334 ft | 470 kts | 355° |
| 2026-05-08 06:26 | 32.72405 | -7.50394 | 29628 ft | 472 kts | 355° |
| 2026-05-08 06:26 | 32.75695 | -7.50416 | 29912 ft | 474 kts | 355° |
| 2026-05-08 06:26 | 32.79000 | -7.50434 | 30186 ft | 476 kts | 355° |
| 2026-05-08 06:26 | 32.82322 | -7.50449 | 30451 ft | 478 kts | 355° |
| 2026-05-08 06:27 | 32.85653 | -7.50464 | 30718 ft | 480 kts | 355° |
| 2026-05-08 06:27 | 32.89001 | -7.50479 | 30968 ft | 482 kts | 355° |
| 2026-05-08 06:27 | 32.92359 | -7.50494 | 31222 ft | 483 kts | 355° |
| 2026-05-08 06:27 | 32.95724 | -7.50513 | 31541 ft | 483 kts | 355° |
| 2026-05-08 06:28 | 32.99084 | -7.50533 | 31888 ft | 482 kts | 355° |
| 2026-05-08 06:28 | 33.02433 | -7.50548 | 32227 ft | 481 kts | 355° |
| 2026-05-08 06:28 | 33.05782 | -7.50566 | 32563 ft | 481 kts | 355° |
| 2026-05-08 06:28 | 33.09122 | -7.50577 | 32903 ft | 481 kts | 357° |
| 2026-05-08 06:29 | 33.12466 | -7.50207 | 33203 ft | 485 kts | 6° |
| 2026-05-08 06:29 | 33.15763 | -7.49277 | 33500 ft | 488 kts | 12° |
| 2026-05-08 06:29 | 33.19038 | -7.48198 | 33800 ft | 488 kts | 12° |
| 2026-05-08 06:29 | 33.22305 | -7.47121 | 34097 ft | 487 kts | 12° |
| 2026-05-08 06:30 | 33.25581 | -7.46046 | 34378 ft | 487 kts | 12° |
| 2026-05-08 06:30 | 33.28848 | -7.44978 | 34665 ft | 487 kts | 11° |
| 2026-05-08 06:30 | 33.32111 | -7.43914 | 34948 ft | 486 kts | 11° |
| 2026-05-08 06:30 | 33.35375 | -7.42852 | 35213 ft | 485 kts | 11° |
| 2026-05-08 06:31 | 33.38630 | -7.41792 | 35474 ft | 485 kts | 11° |
| 2026-05-08 06:31 | 33.41888 | -7.40729 | 35723 ft | 485 kts | 12° |
| 2026-05-08 06:31 | 33.45142 | -7.39665 | 35899 ft | 485 kts | 12° |
| 2026-05-08 06:31 | 33.48385 | -7.38605 | 35945 ft | 482 kts | 11° |
| 2026-05-08 06:32 | 33.54787 | -7.36504 | 35943 ft | 480 kts | 12° |
| 2026-05-08 06:32 | 33.61222 | -7.34384 | 35943 ft | 480 kts | 12° |
| 2026-05-08 06:33 | 33.67695 | -7.32254 | 35943 ft | 479 kts | 11° |
| 2026-05-08 06:33 | 33.74094 | -7.30154 | 35944 ft | 479 kts | 11° |
| 2026-05-08 06:34 | 33.80534 | -7.28032 | 35944 ft | 480 kts | 12° |
| 2026-05-08 06:34 | 33.86970 | -7.25898 | 35944 ft | 480 kts | 12° |
| 2026-05-08 06:35 | 33.93410 | -7.23761 | 35946 ft | 480 kts | 12° |
| 2026-05-08 06:35 | 33.99845 | -7.21628 | 35948 ft | 479 kts | 12° |
| 2026-05-08 06:36 | 34.06277 | -7.19499 | 35935 ft | 480 kts | 12° |
| 2026-05-08 06:36 | 34.12711 | -7.17367 | 35929 ft | 480 kts | 12° |
| 2026-05-08 06:37 | 34.19149 | -7.15211 | 35928 ft | 479 kts | 12° |
| 2026-05-08 06:37 | 34.25573 | -7.13058 | 35924 ft | 479 kts | 12° |
| 2026-05-08 06:38 | 34.31998 | -7.10910 | 35923 ft | 479 kts | 12° |
| 2026-05-08 06:38 | 34.38385 | -7.08778 | 35923 ft | 479 kts | 12° |
| 2026-05-08 06:39 | 34.44815 | -7.06628 | 35928 ft | 479 kts | 12° |
| 2026-05-08 06:39 | 34.51242 | -7.04471 | 35924 ft | 479 kts | 12° |
| 2026-05-08 06:40 | 34.57667 | -7.02309 | 35924 ft | 479 kts | 13° |
| 2026-05-08 06:40 | 34.63828 | -6.99197 | 35927 ft | 482 kts | 25° |
| 2026-05-08 06:41 | 34.69670 | -6.95611 | 35926 ft | 482 kts | 25° |
| 2026-05-08 06:41 | 34.75668 | -6.91940 | 35930 ft | 483 kts | 25° |
| 2026-05-08 06:42 | 34.81661 | -6.88262 | 35931 ft | 482 kts | 25° |
| 2026-05-08 06:42 | 34.87646 | -6.84573 | 35935 ft | 482 kts | 25° |
| 2026-05-08 06:43 | 34.93629 | -6.80880 | 35934 ft | 482 kts | 25° |
| 2026-05-08 06:43 | 34.99604 | -6.77188 | 35937 ft | 481 kts | 25° |
| 2026-05-08 06:44 | 35.05575 | -6.73505 | 35936 ft | 481 kts | 25° |
| 2026-05-08 06:44 | 35.11543 | -6.69811 | 35935 ft | 481 kts | 25° |
| 2026-05-08 06:45 | 35.17503 | -6.66113 | 35935 ft | 481 kts | 25° |
| 2026-05-08 06:45 | 35.23466 | -6.62404 | 35938 ft | 481 kts | 25° |
| 2026-05-08 06:46 | 35.29423 | -6.58692 | 35943 ft | 481 kts | 25° |
| 2026-05-08 06:46 | 35.35380 | -6.54973 | 35948 ft | 481 kts | 25° |
| 2026-05-08 06:47 | 35.41303 | -6.51274 | 35951 ft | 481 kts | 25° |
| 2026-05-08 06:47 | 35.47257 | -6.47532 | 35953 ft | 481 kts | 26° |
| 2026-05-08 06:48 | 35.53164 | -6.43685 | 35955 ft | 480 kts | 26° |
| 2026-05-08 06:48 | 35.59042 | -6.39796 | 35952 ft | 479 kts | 26° |
| 2026-05-08 06:49 | 35.64924 | -6.35935 | 35949 ft | 479 kts | 26° |
| 2026-05-08 06:49 | 35.70812 | -6.32084 | 35948 ft | 479 kts | 26° |
| 2026-05-08 06:50 | 35.76692 | -6.28235 | 35949 ft | 479 kts | 26° |
| 2026-05-08 06:50 | 35.82615 | -6.24512 | 35952 ft | 477 kts | 20° |
| 2026-05-08 06:51 | 35.88944 | -6.22274 | 35947 ft | 472 kts | 10° |
| 2026-05-08 06:51 | 35.95339 | -6.20404 | 35942 ft | 473 kts | 10° |
| 2026-05-08 06:52 | 36.01743 | -6.18524 | 35942 ft | 473 kts | 10° |
| 2026-05-08 06:52 | 36.07065 | -6.16957 | 35943 ft | 473 kts | 10° |
| 2026-05-08 06:53 | 36.13472 | -6.15063 | 35944 ft | 473 kts | 11° |
| 2026-05-08 06:53 | 36.19872 | -6.13162 | 35945 ft | 473 kts | 11° |
| 2026-05-08 06:54 | 36.26267 | -6.11271 | 35944 ft | 472 kts | 11° |
| 2026-05-08 06:54 | 36.32662 | -6.09372 | 35939 ft | 473 kts | 11° |
| 2026-05-08 06:55 | 36.39055 | -6.07471 | 35937 ft | 472 kts | 11° |
| 2026-05-08 06:55 | 36.45449 | -6.05574 | 35940 ft | 472 kts | 11° |
| 2026-05-08 06:56 | 36.51845 | -6.03664 | 35944 ft | 473 kts | 11° |
| 2026-05-08 06:56 | 36.58241 | -6.01754 | 35949 ft | 473 kts | 11° |
| 2026-05-08 06:57 | 36.64640 | -5.99851 | 35954 ft | 473 kts | 11° |
| 2026-05-08 06:57 | 36.71038 | -5.97941 | 35962 ft | 472 kts | 11° |
| 2026-05-08 06:58 | 36.77417 | -5.96026 | 35963 ft | 471 kts | 11° |
| 2026-05-08 06:58 | 36.83735 | -5.94125 | 35962 ft | 470 kts | 11° |
| 2026-05-08 06:59 | 36.90094 | -5.92210 | 35959 ft | 469 kts | 11° |
| 2026-05-08 06:59 | 36.96434 | -5.90296 | 35959 ft | 469 kts | 11° |
| 2026-05-08 07:00 | 37.02774 | -5.88380 | 35960 ft | 468 kts | 11° |
| 2026-05-08 07:00 | 37.09102 | -5.86464 | 35953 ft | 466 kts | 11° |
| 2026-05-08 07:01 | 37.15378 | -5.84557 | 35948 ft | 463 kts | 11° |
| 2026-05-08 07:01 | 37.21656 | -5.82665 | 35924 ft | 466 kts | 11° |
| 2026-05-08 07:02 | 37.27985 | -5.80733 | 35937 ft | 469 kts | 11° |
| 2026-05-08 07:02 | 37.34329 | -5.78790 | 35970 ft | 470 kts | 11° |
| 2026-05-08 07:03 | 37.40670 | -5.76863 | 35974 ft | 468 kts | 12° |
| 2026-05-08 07:03 | 37.46732 | -5.73836 | 35965 ft | 471 kts | 24° |
| 2026-05-08 07:04 | 37.52632 | -5.70249 | 35968 ft | 472 kts | 24° |
| 2026-05-08 07:04 | 37.58538 | -5.66669 | 35965 ft | 468 kts | 24° |
| 2026-05-08 07:05 | 37.64411 | -5.63121 | 35956 ft | 468 kts | 24° |
| 2026-05-08 07:05 | 37.70275 | -5.59554 | 35967 ft | 467 kts | 24° |
| 2026-05-08 07:06 | 37.76159 | -5.56004 | 35956 ft | 469 kts | 24° |
| 2026-05-08 07:06 | 37.82092 | -5.52422 | 35991 ft | 474 kts | 25° |
| 2026-05-08 07:07 | 37.87928 | -5.48817 | 35986 ft | 469 kts | 24° |
| 2026-05-08 07:07 | 37.93784 | -5.45189 | 35949 ft | 473 kts | 24° |
| 2026-05-08 07:08 | 37.99692 | -5.41565 | 35969 ft | 472 kts | 23° |
| 2026-05-08 07:08 | 38.05603 | -5.37955 | 35984 ft | 470 kts | 24° |
| 2026-05-08 07:09 | 38.11505 | -5.34352 | 35985 ft | 471 kts | 24° |
| 2026-05-08 07:09 | 38.17416 | -5.30707 | 35981 ft | 473 kts | 24° |
| 2026-05-08 07:10 | 38.23361 | -5.27053 | 35982 ft | 475 kts | 24° |
| 2026-05-08 07:10 | 38.29270 | -5.23382 | 35994 ft | 472 kts | 24° |
| 2026-05-08 07:11 | 38.35128 | -5.19716 | 35980 ft | 468 kts | 24° |
| 2026-05-08 07:11 | 38.41001 | -5.16078 | 35978 ft | 468 kts | 24° |
| 2026-05-08 07:12 | 38.46836 | -5.12445 | 35965 ft | 467 kts | 24° |
| 2026-05-08 07:12 | 38.52699 | -5.08867 | 35966 ft | 466 kts | 22° |
| 2026-05-08 07:13 | 38.58707 | -5.05737 | 35962 ft | 466 kts | 19° |
| 2026-05-08 07:13 | 38.64759 | -5.02808 | 35956 ft | 466 kts | 19° |
| 2026-05-08 07:14 | 38.70760 | -4.99811 | 35937 ft | 462 kts | 19° |
| 2026-05-08 07:14 | 38.76712 | -4.96749 | 35936 ft | 461 kts | 20° |
| 2026-05-08 07:15 | 38.82649 | -4.93641 | 35941 ft | 460 kts | 20° |
| 2026-05-08 07:15 | 38.88546 | -4.90586 | 35948 ft | 462 kts | 20° |
| 2026-05-08 07:16 | 38.94512 | -4.87529 | 35939 ft | 461 kts | 19° |
| 2026-05-08 07:16 | 39.00495 | -4.84453 | 35943 ft | 466 kts | 20° |
| 2026-05-08 07:17 | 39.06522 | -4.81329 | 35981 ft | 467 kts | 20° |
| 2026-05-08 07:17 | 39.12547 | -4.78207 | 36001 ft | 466 kts | 20° |
| 2026-05-08 07:18 | 39.18554 | -4.75077 | 35993 ft | 465 kts | 19° |
| 2026-05-08 07:18 | 39.24541 | -4.71951 | 35994 ft | 463 kts | 19° |
| 2026-05-08 07:19 | 39.30512 | -4.68837 | 35992 ft | 462 kts | 19° |
| 2026-05-08 07:19 | 39.36474 | -4.65714 | 35989 ft | 462 kts | 19° |
| 2026-05-08 07:20 | 39.42426 | -4.62595 | 35993 ft | 461 kts | 19° |
| 2026-05-08 07:20 | 39.48370 | -4.59476 | 35987 ft | 460 kts | 19° |
| 2026-05-08 07:21 | 39.54305 | -4.56359 | 35983 ft | 460 kts | 19° |
| 2026-05-08 07:21 | 39.60232 | -4.53236 | 35980 ft | 460 kts | 19° |
| 2026-05-08 07:22 | 39.66150 | -4.50113 | 35978 ft | 459 kts | 19° |
| 2026-05-08 07:22 | 39.72059 | -4.46979 | 35978 ft | 458 kts | 19° |
| 2026-05-08 07:23 | 39.77919 | -4.43870 | 35975 ft | 458 kts | 19° |
| 2026-05-08 07:23 | 39.83821 | -4.40743 | 35977 ft | 457 kts | 19° |
| 2026-05-08 07:24 | 39.89708 | -4.37612 | 35979 ft | 457 kts | 19° |
| 2026-05-08 07:24 | 39.95588 | -4.34468 | 35982 ft | 456 kts | 19° |
| 2026-05-08 07:25 | 40.01417 | -4.31181 | 35977 ft | 457 kts | 22° |
| 2026-05-08 07:26 | 40.10021 | -4.25820 | 35976 ft | 457 kts | 22° |
| 2026-05-08 07:26 | 40.15760 | -4.22248 | 35975 ft | 456 kts | 22° |
| 2026-05-08 07:27 | 40.21509 | -4.18737 | 35974 ft | 456 kts | 22° |
| 2026-05-08 07:27 | 40.27260 | -4.15236 | 35971 ft | 456 kts | 22° |
| 2026-05-08 07:28 | 40.33003 | -4.11714 | 35971 ft | 456 kts | 22° |
| 2026-05-08 07:28 | 40.38749 | -4.08173 | 35970 ft | 456 kts | 22° |
| 2026-05-08 07:29 | 40.44490 | -4.04625 | 35970 ft | 456 kts | 22° |
| 2026-05-08 07:29 | 40.50233 | -4.01072 | 35969 ft | 456 kts | 22° |
| 2026-05-08 07:30 | 40.55932 | -3.97545 | 35969 ft | 456 kts | 22° |
| 2026-05-08 07:30 | 40.61665 | -3.93991 | 35976 ft | 455 kts | 22° |
| 2026-05-08 07:31 | 40.67393 | -3.90442 | 35977 ft | 455 kts | 22° |
| 2026-05-08 07:31 | 40.73114 | -3.86881 | 35977 ft | 455 kts | 22° |
| 2026-05-08 07:32 | 40.78834 | -3.83305 | 35979 ft | 454 kts | 22° |
| 2026-05-08 07:32 | 40.84549 | -3.79734 | 35983 ft | 454 kts | 22° |
| 2026-05-08 07:33 | 40.90257 | -3.76169 | 35986 ft | 454 kts | 22° |
| 2026-05-08 07:33 | 40.95958 | -3.72594 | 35984 ft | 453 kts | 22° |
| 2026-05-08 07:34 | 41.01647 | -3.69013 | 35978 ft | 453 kts | 22° |
| 2026-05-08 07:34 | 41.07324 | -3.65424 | 35975 ft | 452 kts | 22° |
| 2026-05-08 07:35 | 41.12996 | -3.61835 | 35973 ft | 452 kts | 22° |
| 2026-05-08 07:35 | 41.18702 | -3.58368 | 35974 ft | 450 kts | 19° |
| 2026-05-08 07:36 | 41.24499 | -3.55256 | 35974 ft | 449 kts | 18° |
| 2026-05-08 07:36 | 41.30308 | -3.52218 | 35969 ft | 449 kts | 18° |
| 2026-05-08 07:37 | 41.36095 | -3.49095 | 35968 ft | 449 kts | 19° |
| 2026-05-08 07:37 | 41.41862 | -3.45909 | 35968 ft | 449 kts | 19° |
| 2026-05-08 07:38 | 41.47630 | -3.42721 | 35969 ft | 448 kts | 19° |
| 2026-05-08 07:38 | 41.53395 | -3.39551 | 35969 ft | 448 kts | 19° |
| 2026-05-08 07:39 | 41.59153 | -3.36372 | 35967 ft | 448 kts | 19° |
| 2026-05-08 07:39 | 41.64913 | -3.33182 | 35968 ft | 448 kts | 19° |
| 2026-05-08 07:40 | 41.70634 | -3.30025 | 35968 ft | 447 kts | 19° |
| 2026-05-08 07:40 | 41.76393 | -3.26837 | 35964 ft | 447 kts | 19° |
| 2026-05-08 07:41 | 41.82140 | -3.23628 | 35963 ft | 448 kts | 19° |
| 2026-05-08 07:41 | 41.86920 | -3.20957 | 35965 ft | 448 kts | 19° |
| 2026-05-08 07:42 | 41.92672 | -3.17750 | 35964 ft | 447 kts | 19° |
| 2026-05-08 07:42 | 41.98417 | -3.14543 | 35960 ft | 447 kts | 19° |
| 2026-05-08 07:43 | 42.04160 | -3.11321 | 35968 ft | 447 kts | 19° |
| 2026-05-08 07:43 | 42.09895 | -3.08102 | 35974 ft | 446 kts | 19° |
| 2026-05-08 07:44 | 42.15612 | -3.04889 | 35972 ft | 445 kts | 19° |
| 2026-05-08 07:44 | 42.21320 | -3.01683 | 35972 ft | 444 kts | 19° |
| 2026-05-08 07:45 | 42.27020 | -2.98460 | 35970 ft | 444 kts | 19° |
| 2026-05-08 07:45 | 42.32718 | -2.95231 | 35970 ft | 444 kts | 19° |
| 2026-05-08 07:46 | 42.38413 | -2.92007 | 35971 ft | 443 kts | 19° |
| 2026-05-08 07:46 | 42.44068 | -2.88671 | 35967 ft | 445 kts | 25° |
| 2026-05-08 07:47 | 42.49045 | -2.83603 | 35967 ft | 451 kts | 39° |
| 2026-05-08 07:47 | 42.53736 | -2.77945 | 35965 ft | 451 kts | 38° |
| 2026-05-08 07:48 | 42.58436 | -2.72294 | 35966 ft | 451 kts | 38° |
| 2026-05-08 07:48 | 42.63091 | -2.66679 | 35966 ft | 450 kts | 38° |
| 2026-05-08 07:49 | 42.67762 | -2.61020 | 35965 ft | 450 kts | 38° |
| 2026-05-08 07:49 | 42.72427 | -2.55353 | 35964 ft | 450 kts | 39° |
| 2026-05-08 07:50 | 42.77094 | -2.49686 | 35966 ft | 449 kts | 38° |
| 2026-05-08 07:50 | 42.81754 | -2.44005 | 35969 ft | 450 kts | 39° |
| 2026-05-08 07:51 | 42.86410 | -2.38319 | 35971 ft | 449 kts | 39° |
| 2026-05-08 07:51 | 42.91070 | -2.32626 | 35971 ft | 450 kts | 39° |
| 2026-05-08 07:52 | 42.95719 | -2.26918 | 35971 ft | 449 kts | 39° |
| 2026-05-08 07:52 | 43.00363 | -2.21208 | 35968 ft | 449 kts | 39° |
| 2026-05-08 07:53 | 43.04999 | -2.15490 | 35963 ft | 449 kts | 39° |
| 2026-05-08 07:53 | 43.09625 | -2.09756 | 35961 ft | 449 kts | 39° |
| 2026-05-08 07:54 | 43.14249 | -2.04016 | 35957 ft | 449 kts | 39° |
| 2026-05-08 07:54 | 43.18872 | -1.98289 | 35952 ft | 448 kts | 39° |
| 2026-05-08 07:55 | 43.23485 | -1.92565 | 35952 ft | 447 kts | 39° |
| 2026-05-08 07:55 | 43.28056 | -1.86876 | 35945 ft | 446 kts | 39° |
| 2026-05-08 07:56 | 43.32299 | -1.80657 | 35899 ft | 450 kts | 53° |
| 2026-05-08 07:56 | 43.34047 | -1.77068 | 35373 ft | 453 kts | 54° |
| 2026-05-08 07:56 | 43.35782 | -1.73478 | 34810 ft | 450 kts | 54° |
| 2026-05-08 07:56 | 43.37506 | -1.69910 | 34306 ft | 446 kts | 53° |
| 2026-05-08 07:57 | 43.39222 | -1.66371 | 33788 ft | 443 kts | 53° |
| 2026-05-08 07:57 | 43.40925 | -1.62862 | 33297 ft | 440 kts | 53° |
| 2026-05-08 07:57 | 43.42617 | -1.59381 | 32804 ft | 436 kts | 53° |
| 2026-05-08 07:57 | 43.44297 | -1.55919 | 32310 ft | 433 kts | 53° |
| 2026-05-08 07:58 | 43.46050 | -1.52590 | 31811 ft | 426 kts | 46° |
| 2026-05-08 07:58 | 43.48110 | -1.49718 | 31343 ft | 418 kts | 37° |
| 2026-05-08 07:58 | 43.50411 | -1.47323 | 30871 ft | 412 kts | 32° |
| 2026-05-08 07:58 | 43.52734 | -1.45037 | 30421 ft | 409 kts | 32° |
| 2026-05-08 07:59 | 43.55029 | -1.42767 | 29970 ft | 404 kts | 32° |
| 2026-05-08 07:59 | 43.57300 | -1.40510 | 29532 ft | 400 kts | 32° |
| 2026-05-08 07:59 | 43.59541 | -1.38276 | 29103 ft | 395 kts | 32° |
| 2026-05-08 07:59 | 43.61752 | -1.36068 | 28681 ft | 390 kts | 33° |
| 2026-05-08 08:00 | 43.63936 | -1.33891 | 28279 ft | 385 kts | 33° |
| 2026-05-08 08:00 | 43.66093 | -1.31736 | 27879 ft | 380 kts | 33° |
| 2026-05-08 08:00 | 43.68224 | -1.29605 | 27468 ft | 376 kts | 33° |
| 2026-05-08 08:00 | 43.70332 | -1.27499 | 27075 ft | 372 kts | 33° |
| 2026-05-08 08:01 | 43.72416 | -1.25415 | 26675 ft | 368 kts | 33° |
| 2026-05-08 08:01 | 43.74483 | -1.23349 | 26278 ft | 365 kts | 34° |
| 2026-05-08 08:01 | 43.76530 | -1.21302 | 25873 ft | 362 kts | 34° |
| 2026-05-08 08:01 | 43.78562 | -1.19271 | 25455 ft | 359 kts | 34° |
| 2026-05-08 08:02 | 43.80578 | -1.17258 | 25043 ft | 356 kts | 34° |
| 2026-05-08 08:02 | 43.82580 | -1.15256 | 24616 ft | 354 kts | 34° |
| 2026-05-08 08:02 | 43.84567 | -1.13260 | 24192 ft | 352 kts | 34° |
| 2026-05-08 08:02 | 43.86541 | -1.11271 | 23768 ft | 350 kts | 35° |
| 2026-05-08 08:03 | 43.88503 | -1.09293 | 23338 ft | 348 kts | 35° |
| 2026-05-08 08:03 | 43.90455 | -1.07326 | 22899 ft | 346 kts | 35° |
| 2026-05-08 08:03 | 43.92397 | -1.05371 | 22478 ft | 344 kts | 35° |
| 2026-05-08 08:03 | 43.94333 | -1.03421 | 22071 ft | 343 kts | 35° |
| 2026-05-08 08:04 | 43.96256 | -1.01478 | 21656 ft | 341 kts | 35° |
| 2026-05-08 08:04 | 43.98146 | -0.99566 | 21250 ft | 340 kts | 35° |
| 2026-05-08 08:04 | 44.00055 | -0.97630 | 20838 ft | 339 kts | 36° |
| 2026-05-08 08:04 | 44.01956 | -0.95700 | 20427 ft | 338 kts | 36° |
| 2026-05-08 08:05 | 44.03854 | -0.93777 | 20020 ft | 337 kts | 36° |
| 2026-05-08 08:05 | 44.05748 | -0.91861 | 19612 ft | 337 kts | 36° |
| 2026-05-08 08:05 | 44.07642 | -0.89945 | 19203 ft | 336 kts | 36° |
| 2026-05-08 08:05 | 44.09528 | -0.88034 | 18798 ft | 335 kts | 36° |
| 2026-05-08 08:06 | 44.11410 | -0.86127 | 18394 ft | 334 kts | 36° |
| 2026-05-08 08:06 | 44.13286 | -0.84220 | 17989 ft | 334 kts | 36° |
| 2026-05-08 08:06 | 44.15157 | -0.82315 | 17592 ft | 333 kts | 36° |
| 2026-05-08 08:06 | 44.17027 | -0.80408 | 17190 ft | 333 kts | 36° |
| 2026-05-08 08:07 | 44.18892 | -0.78508 | 16798 ft | 332 kts | 36° |
| 2026-05-08 08:07 | 44.20754 | -0.76610 | 16409 ft | 331 kts | 36° |
| 2026-05-08 08:07 | 44.22611 | -0.74715 | 16019 ft | 331 kts | 36° |
| 2026-05-08 08:07 | 44.24467 | -0.72814 | 15635 ft | 331 kts | 36° |
| 2026-05-08 08:08 | 44.26319 | -0.70918 | 15256 ft | 330 kts | 36° |
| 2026-05-08 08:08 | 44.28169 | -0.69042 | 14872 ft | 328 kts | 35° |
| 2026-05-08 08:08 | 44.30060 | -0.67280 | 14542 ft | 326 kts | 32° |
| 2026-05-08 08:08 | 44.31979 | -0.65611 | 14189 ft | 324 kts | 31° |
| 2026-05-08 08:09 | 44.33901 | -0.63983 | 13854 ft | 322 kts | 31° |
| 2026-05-08 08:09 | 44.35813 | -0.62366 | 13526 ft | 320 kts | 31° |
| 2026-05-08 08:09 | 44.37700 | -0.60756 | 13187 ft | 317 kts | 31° |
| 2026-05-08 08:09 | 44.39575 | -0.59143 | 12854 ft | 315 kts | 32° |
| 2026-05-08 08:10 | 44.41432 | -0.57532 | 12528 ft | 313 kts | 32° |
| 2026-05-08 08:10 | 44.43272 | -0.55930 | 12211 ft | 310 kts | 32° |
| 2026-05-08 08:10 | 44.45094 | -0.54339 | 11885 ft | 308 kts | 32° |
| 2026-05-08 08:10 | 44.46906 | -0.52751 | 11550 ft | 307 kts | 32° |
| 2026-05-08 08:11 | 44.48711 | -0.51164 | 11227 ft | 306 kts | 32° |
| 2026-05-08 08:11 | 44.50507 | -0.49585 | 10904 ft | 304 kts | 32° |
| 2026-05-08 08:11 | 44.52272 | -0.48034 | 10594 ft | 303 kts | 32° |
| 2026-05-08 08:11 | 44.54060 | -0.46473 | 10281 ft | 302 kts | 30° |
| 2026-05-08 08:12 | 44.55969 | -0.45288 | 9963 ft | 299 kts | 17° |
| 2026-05-08 08:12 | 44.57991 | -0.44663 | 9666 ft | 297 kts | 11° |
| 2026-05-08 08:12 | 44.60019 | -0.44111 | 9359 ft | 297 kts | 11° |
| 2026-05-08 08:12 | 44.62041 | -0.43553 | 9026 ft | 295 kts | 11° |
| 2026-05-08 08:13 | 44.64052 | -0.42994 | 8712 ft | 294 kts | 11° |
| 2026-05-08 08:13 | 44.66053 | -0.42437 | 8417 ft | 293 kts | 11° |
| 2026-05-08 08:13 | 44.68043 | -0.41888 | 8112 ft | 291 kts | 11° |
| 2026-05-08 08:13 | 44.70028 | -0.41334 | 7781 ft | 291 kts | 11° |
| 2026-05-08 08:14 | 44.72002 | -0.40784 | 7476 ft | 288 kts | 11° |
| 2026-05-08 08:14 | 44.73966 | -0.40239 | 7187 ft | 286 kts | 11° |
| 2026-05-08 08:14 | 44.75916 | -0.39694 | 6888 ft | 285 kts | 11° |
| 2026-05-08 08:14 | 44.77857 | -0.39153 | 6575 ft | 284 kts | 11° |
| 2026-05-08 08:15 | 44.79791 | -0.38614 | 6263 ft | 282 kts | 12° |
| 2026-05-08 08:15 | 44.81715 | -0.38079 | 6034 ft | 282 kts | 11° |
| 2026-05-08 08:15 | 44.83624 | -0.37548 | 5756 ft | 279 kts | 11° |
| 2026-05-08 08:15 | 44.85505 | -0.37022 | 5565 ft | 270 kts | 11° |
| 2026-05-08 08:16 | 44.87307 | -0.36529 | 5438 ft | 257 kts | 8° |
| 2026-05-08 08:16 | 44.89041 | -0.36624 | 5282 ft | 246 kts | 346° |
| 2026-05-08 08:16 | 44.90600 | -0.37564 | 5144 ft | 244 kts | 325° |
| 2026-05-08 08:16 | 44.91862 | -0.39141 | 4895 ft | 243 kts | 314° |
| 2026-05-08 08:17 | 44.93062 | -0.40818 | 4628 ft | 243 kts | 315° |
| 2026-05-08 08:17 | 44.94262 | -0.42478 | 4391 ft | 241 kts | 315° |
| 2026-05-08 08:17 | 44.95458 | -0.44126 | 4141 ft | 240 kts | 315° |
| 2026-05-08 08:17 | 44.96651 | -0.45767 | 3878 ft | 238 kts | 315° |
| 2026-05-08 08:18 | 44.97542 | -0.47659 | 3621 ft | 228 kts | 285° |
| 2026-05-08 08:18 | 44.97556 | -0.49835 | 3389 ft | 222 kts | 251° |
| 2026-05-08 08:18 | 44.96737 | -0.51623 | 3139 ft | 218 kts | 219° |
| 2026-05-08 08:18 | 44.95595 | -0.53030 | 3035 ft | 220 kts | 227° |
| 2026-05-08 08:19 | 44.94595 | -0.54631 | 3015 ft | 221 kts | 226° |
| 2026-05-08 08:19 | 44.93548 | -0.56210 | 2832 ft | 218 kts | 225° |
| 2026-05-08 08:19 | 44.92493 | -0.57736 | 2567 ft | 217 kts | 224° |
| 2026-05-08 08:19 | 44.91434 | -0.59257 | 2281 ft | 217 kts | 224° |
| 2026-05-08 08:20 | 44.90373 | -0.60780 | 1987 ft | 218 kts | 224° |